Time;durP1;ratioP1;P1;durP2;ratioP2;P2;SDS_P1;SDS_P2;PMS_P1;PMS_P2;Temp;Humidity;BMP_temperature;BMP_pressure;BME280_temperature;BME280_humidity;BME280_pressure;Samples;Min_cycle;Max_cycle;Signal;HPM_P1;HPM_P2
2023/05/06 00:02:07;;;;;;;13.52;12.23;;;;;;;11.07;100.00;101477.75;4971207;28;20029;-65
2023/05/06 00:04:32;;;;;;;12.45;11.43;;;;;;;11.03;100.00;101467.25;4975756;28;20101;-64
2023/05/06 00:06:58;;;;;;;14.45;13.00;;;;;;;11.01;100.00;101463.72;4975604;28;20030;-65
2023/05/06 00:09:23;;;;;;;13.68;12.38;;;;;;;10.97;100.00;101464.44;4988297;28;20030;-65
2023/05/06 00:11:49;;;;;;;13.35;12.25;;;;;;;10.93;100.00;101465.13;4988102;28;20029;-65
2023/05/06 00:14:15;;;;;;;13.75;12.40;;;;;;;10.88;100.00;101456.28;4988576;28;20026;-65
2023/05/06 00:16:40;;;;;;;13.70;12.45;;;;;;;10.83;100.00;101465.56;4987100;28;20088;-65
2023/05/06 00:19:05;;;;;;;14.57;13.18;;;;;;;10.77;100.00;101464.50;4987095;28;20558;-65
2023/05/06 00:21:31;;;;;;;14.45;13.05;;;;;;;10.73;100.00;101462.59;4987504;28;20026;-64
2023/05/06 00:23:56;;;;;;;15.27;13.82;;;;;;;10.68;100.00;101458.94;4988382;28;20033;-65
2023/05/06 00:26:21;;;;;;;15.27;13.88;;;;;;;10.63;100.00;101457.84;4974473;28;20045;-65
2023/05/06 00:28:47;;;;;;;14.27;12.93;;;;;;;10.60;100.00;101455.09;4975313;28;20491;-65
2023/05/06 00:31:12;;;;;;;17.88;15.75;;;;;;;10.57;100.00;101455.88;4986428;28;20022;-65
2023/05/06 00:33:37;;;;;;;17.85;16.02;;;;;;;10.56;100.00;101451.50;4976312;28;20026;-64
2023/05/06 00:36:03;;;;;;;15.68;14.07;;;;;;;10.53;100.00;101460.06;4986192;28;20026;-65
2023/05/06 00:38:28;;;;;;;18.15;16.48;;;;;;;10.52;100.00;101458.25;4981649;28;20027;-64
2023/05/06 00:40:53;;;;;;;16.50;14.90;;;;;;;10.51;100.00;101451.31;4980490;28;20494;-64
2023/05/06 00:43:19;;;;;;;17.08;15.07;;;;;;;10.50;100.00;101449.56;4987092;28;20026;-64
2023/05/06 00:45:44;;;;;;;16.88;15.32;;;;;;;10.48;100.00;101460.66;4980740;28;20030;-64
2023/05/06 00:48:09;;;;;;;16.20;14.70;;;;;;;10.44;100.00;101457.03;4985601;28;20034;-64
2023/05/06 00:50:38;;;;;;;17.25;15.52;;;;;;;10.42;100.00;101458.66;4972591;28;20033;-63
2023/05/06 00:53:04;;;;;;;17.27;15.68;;;;;;;10.40;100.00;101449.94;4972725;28;20027;-65
2023/05/06 00:55:30;;;;;;;16.10;14.60;;;;;;;10.38;100.00;101454.19;4973428;28;20432;-64
2023/05/06 00:57:56;;;;;;;17.10;15.40;;;;;;;10.35;100.00;101443.69;4972887;28;20097;-64
2023/05/06 01:00:21;;;;;;;17.17;15.48;;;;;;;10.33;100.00;101446.22;4973040;28;20037;-64
2023/05/06 01:02:47;;;;;;;17.25;15.70;;;;;;;10.29;100.00;101441.75;4972498;28;20042;-64
2023/05/06 01:05:15;;;;;;;18.52;16.73;;;;;;;10.27;100.00;101441.63;4984591;28;20034;-64
2023/05/06 01:07:46;;;;;;;17.98;16.27;;;;;;;10.25;100.00;101440.72;4973974;28;20022;-64
2023/05/06 01:10:20;;;;;;;18.85;17.05;;;;;;;10.25;100.00;101442.41;4985336;28;20028;-64
2023/05/06 01:13:03;;;;;;;17.90;16.23;;;;;;;10.23;100.00;101439.75;4972785;28;20457;-64
2023/05/06 01:15:49;;;;;;;17.73;15.95;;;;;;;10.21;100.00;101442.28;4984527;28;20058;-65
2023/05/06 01:18:17;;;;;;;18.95;17.25;;;;;;;10.17;100.00;101440.38;4972419;28;20027;-64
2023/05/06 01:20:51;;;;;;;18.20;16.30;;;;;;;10.14;100.00;101441.94;4978857;28;20030;-64
2023/05/06 01:23:17;;;;;;;17.85;16.25;;;;;;;10.11;100.00;101441.81;4991065;28;20057;-64
2023/05/06 01:25:43;;;;;;;18.20;16.27;;;;;;;10.07;100.00;101443.38;4991103;28;20026;-64
2023/05/06 01:28:10;;;;;;;17.48;15.77;;;;;;;10.05;100.00;101445.03;4990612;28;20084;-65
2023/05/06 01:30:50;;;;;;;17.73;16.13;;;;;;;10.01;100.00;101443.09;4990002;28;20029;-65
2023/05/06 01:33:38;;;;;;;18.85;16.95;;;;;;;9.97;100.00;101436.91;4986402;28;20023;-65
2023/05/06 01:36:31;;;;;;;17.60;15.80;;;;;;;9.93;100.00;101435.88;4962057;28;20493;-65
2023/05/06 01:39:02;;;;;;;16.38;14.85;;;;;;;9.92;100.00;101434.13;4965889;28;20022;-64
2023/05/06 01:41:32;;;;;;;16.35;14.65;;;;;;;9.91;100.00;101436.66;4985014;28;20493;-64
2023/05/06 01:43:59;;;;;;;16.77;15.23;;;;;;;9.87;100.00;101435.63;4991461;28;20023;-64
2023/05/06 01:46:25;;;;;;;16.27;14.68;;;;;;;9.84;100.00;101433.78;4990405;28;20022;-64
2023/05/06 01:48:52;;;;;;;16.60;15.13;;;;;;;9.83;100.00;101433.72;4990415;28;20029;-64
2023/05/06 01:51:20;;;;;;;16.60;15.15;;;;;;;9.80;100.00;101437.06;4990143;28;20014;-64
2023/05/06 01:53:45;;;;;;;18.05;16.35;;;;;;;9.81;100.00;101435.34;4980878;28;20118;-64
2023/05/06 01:56:12;;;;;;;17.92;16.10;;;;;;;9.79;100.00;101450.81;4975200;28;20113;-64
2023/05/06 01:58:37;;;;;;;17.33;15.63;;;;;;;9.78;100.00;101445.56;4990468;28;20024;-64
2023/05/06 02:01:02;;;;;;;18.08;16.17;;;;;;;9.78;100.00;101455.91;4977968;28;20030;-64
2023/05/06 02:03:28;;;;;;;19.33;17.30;;;;;;;9.78;100.00;101455.91;4990645;28;20048;-64
2023/05/06 02:05:53;;;;;;;20.00;17.90;;;;;;;9.76;100.00;101458.44;4989885;28;20379;-64
2023/05/06 02:08:18;;;;;;;18.17;16.45;;;;;;;9.75;100.00;101456.66;4990736;28;20836;-64
2023/05/06 02:10:44;;;;;;;16.90;15.27;;;;;;;9.72;100.00;101453.94;4989622;28;20010;-64
2023/05/06 02:13:10;;;;;;;17.83;16.23;;;;;;;9.69;100.00;101452.09;4991289;28;20030;-64
2023/05/06 02:15:35;;;;;;;18.33;16.52;;;;;;;9.69;100.00;101456.38;4989310;28;20129;-64
2023/05/06 02:18:00;;;;;;;16.70;15.15;;;;;;;9.68;100.00;101459.78;4990354;28;20097;-64
2023/05/06 02:20:26;;;;;;;18.10;16.45;;;;;;;9.67;100.00;101461.50;4990033;28;20018;-64
2023/05/06 02:22:51;;;;;;;17.35;15.57;;;;;;;9.65;100.00;101460.53;4990364;28;20339;-64
2023/05/06 02:25:16;;;;;;;16.40;14.70;;;;;;;9.60;100.00;101452.56;4977023;28;20032;-64
2023/05/06 02:27:43;;;;;;;16.67;15.07;;;;;;;9.59;100.00;101458.56;4989947;28;20030;-64
2023/05/06 02:30:09;;;;;;;15.90;14.45;;;;;;;9.55;100.00;101464.38;4989072;28;20479;-64
2023/05/06 02:32:35;;;;;;;17.13;15.45;;;;;;;9.56;100.00;101455.81;4989922;28;20093;-64
2023/05/06 02:35:00;;;;;;;16.65;15.07;;;;;;;9.55;100.00;101459.22;4989577;28;20026;-64
2023/05/06 02:37:26;;;;;;;17.98;16.17;;;;;;;9.53;100.00;101453.09;4990590;28;20053;-64
2023/05/06 02:39:51;;;;;;;17.17;15.52;;;;;;;9.52;100.00;101453.91;4988518;28;20029;-63
2023/05/06 02:42:16;;;;;;;18.35;16.55;;;;;;;9.49;100.00;101452.06;4989573;28;20034;-65
2023/05/06 02:44:42;;;;;;;17.77;15.77;;;;;;;9.48;100.00;101457.16;4989437;28;20049;-64
2023/05/06 02:47:07;;;;;;;17.58;15.90;;;;;;;9.48;100.00;101451.97;4988729;28;20030;-64
2023/05/06 02:49:32;;;;;;;17.08;15.38;;;;;;;9.46;100.00;101458.81;4974752;28;20030;-64
2023/05/06 02:51:57;;;;;;;19.48;16.10;;;;;;;9.45;100.00;101447.56;4971048;28;20023;-64
2023/05/06 02:54:23;;;;;;;21.83;16.85;;;;;;;9.43;100.00;101449.19;4970083;28;20031;-64
2023/05/06 02:56:48;;;;;;;16.45;14.95;;;;;;;9.41;100.00;101445.63;4962249;28;20360;-64
2023/05/06 02:59:13;;;;;;;18.27;16.42;;;;;;;9.40;100.00;101450.75;4989615;28;20026;-64
2023/05/06 03:01:39;;;;;;;21.42;17.52;;;;;;;9.39;100.00;101443.81;4981094;28;20077;-64
2023/05/06 03:04:04;;;;;;;17.63;15.93;;;;;;;9.35;100.00;101450.53;4985457;28;20393;-64
2023/05/06 03:06:30;;;;;;;17.00;15.40;;;;;;;9.33;100.00;101441.81;4979877;28;20432;-64
2023/05/06 03:08:56;;;;;;;17.23;15.60;;;;;;;9.29;100.00;101452.81;4970347;28;20018;-64
2023/05/06 03:11:21;;;;;;;17.80;16.20;;;;;;;9.26;100.00;101451.00;4979828;28;20382;-64
2023/05/06 03:13:47;;;;;;;22.60;20.42;;;;;;;9.23;100.00;101440.50;4972950;28;20030;-64
2023/05/06 03:16:15;;;;;;;24.48;22.08;;;;;;;9.23;100.00;101451.72;4979608;28;20047;-64
2023/05/06 03:18:40;;;;;;;25.23;22.83;;;;;;;9.23;100.00;101450.84;4988982;28;20088;-64
2023/05/06 03:21:06;;;;;;;25.70;23.20;;;;;;;9.23;100.00;101446.56;4988667;28;20486;-64
2023/05/06 03:23:31;;;;;;;23.60;21.23;;;;;;;9.21;100.00;101455.06;4985581;28;20101;-63
2023/05/06 03:25:57;;;;;;;23.20;21.08;;;;;;;9.21;100.00;101457.66;4980384;28;20029;-64
2023/05/06 03:28:22;;;;;;;27.17;24.48;;;;;;;9.20;100.00;101451.59;4988542;28;20394;-65
2023/05/06 03:30:48;;;;;;;25.38;22.88;;;;;;;9.20;100.00;101450.69;4989480;28;20060;-64
2023/05/06 03:33:13;;;;;;;24.48;22.17;;;;;;;9.18;100.00;101450.63;4989015;28;20018;-64
2023/05/06 03:35:38;;;;;;;25.23;22.98;;;;;;;9.16;100.00;101444.50;4989424;28;20088;-64
2023/05/06 03:38:04;;;;;;;23.25;21.15;;;;;;;9.15;100.00;101437.56;4985033;28;20031;-65
2023/05/06 03:40:29;;;;;;;25.85;23.42;;;;;;;9.13;100.00;101445.25;4980547;28;20038;-64
2023/05/06 03:42:55;;;;;;;23.95;21.65;;;;;;;9.12;100.00;101448.63;4988230;28;20375;-64
2023/05/06 03:45:20;;;;;;;24.05;21.75;;;;;;;9.10;100.00;101439.91;4989256;28;20149;-64
2023/05/06 03:47:45;;;;;;;23.65;21.25;;;;;;;9.08;100.00;101436.38;4987290;28;20026;-64
2023/05/06 03:50:11;;;;;;;20.67;18.63;;;;;;;9.07;100.00;101429.44;4986779;28;20030;-64
2023/05/06 03:52:36;;;;;;;19.67;17.95;;;;;;;9.04;100.00;101442.22;4985388;28;20170;-64
2023/05/06 03:55:02;;;;;;;17.58;15.77;;;;;;;8.99;100.00;101441.97;4986851;28;20028;-64
2023/05/06 03:57:27;;;;;;;16.92;15.23;;;;;;;8.98;100.00;101437.63;4984289;28;20026;-64
2023/05/06 03:59:52;;;;;;;15.32;13.73;;;;;;;8.95;100.00;101441.75;4986015;28;20023;-64
2023/05/06 04:02:17;;;;;;;15.07;13.57;;;;;;;8.93;100.00;101449.44;4973741;28;20402;-64
2023/05/06 04:04:43;;;;;;;15.20;13.50;;;;;;;8.93;100.00;101444.28;4987128;28;20026;-64
2023/05/06 04:07:08;;;;;;;15.52;13.93;;;;;;;8.96;100.00;101452.19;4985844;28;20179;-64
2023/05/06 04:09:33;;;;;;;15.07;13.25;;;;;;;8.96;100.00;101446.16;4986910;28;20022;-64
2023/05/06 04:11:59;;;;;;;13.82;12.20;;;;;;;8.96;100.00;101456.47;4985673;28;20105;-64
2023/05/06 04:14:24;;;;;;;13.93;12.52;;;;;;;8.94;100.00;101450.34;4987134;28;20154;-65
2023/05/06 04:16:50;;;;;;;15.43;13.82;;;;;;;8.93;100.00;101453.72;4985165;28;20388;-65
2023/05/06 04:19:16;;;;;;;15.60;14.25;;;;;;;8.92;100.00;101454.56;4987273;28;20030;-64
2023/05/06 04:21:41;;;;;;;15.02;13.57;;;;;;;8.91;100.00;101457.94;4983970;28;20054;-64
2023/05/06 04:24:07;;;;;;;15.68;14.20;;;;;;;8.92;100.00;101459.72;4977453;28;20419;-64
2023/05/06 04:26:32;;;;;;;16.25;14.82;;;;;;;8.93;100.00;101453.72;4985906;28;20114;-64
2023/05/06 04:28:58;;;;;;;13.82;12.52;;;;;;;8.96;100.00;101453.91;4987546;28;20037;-64
2023/05/06 04:31:23;;;;;;;14.90;13.32;;;;;;;9.00;100.00;101459.28;4985725;28;20026;-64
2023/05/06 04:33:48;;;;;;;16.65;15.05;;;;;;;9.03;100.00;101448.19;4987241;28;20077;-64
2023/05/06 04:36:14;;;;;;;15.77;14.18;;;;;;;9.09;100.00;101455.34;4974145;28;20022;-64
2023/05/06 04:38:39;;;;;;;16.17;14.25;;;;;;;9.13;100.00;101458.19;4979874;28;20526;-64
2023/05/06 04:41:04;;;;;;;15.38;13.95;;;;;;;9.17;100.00;101460.91;4981984;28;20033;-64
2023/05/06 04:43:30;;;;;;;19.17;17.48;;;;;;;9.22;100.00;101467.19;4986724;28;20084;-64
2023/05/06 04:45:55;;;;;;;18.55;16.85;;;;;;;9.27;100.00;101460.53;4988267;28;20026;-64
2023/05/06 04:48:21;;;;;;;18.92;17.02;;;;;;;9.32;100.00;101461.63;4973750;28;20042;-64
2023/05/06 04:50:47;;;;;;;17.73;15.98;;;;;;;9.36;100.00;101468.72;4969139;28;20027;-64
2023/05/06 04:53:13;;;;;;;19.60;16.58;;;;;;;9.40;100.00;101463.69;4968791;28;20113;-65
2023/05/06 04:55:38;;;;;;;18.27;16.48;;;;;;;9.42;100.00;101473.31;4981516;28;20136;-64
2023/05/06 04:58:04;;;;;;;25.83;17.70;;;;;;;9.47;100.00;101463.16;4982038;28;20031;-65
2023/05/06 05:00:29;;;;;;;17.73;15.90;;;;;;;9.52;100.00;101469.44;4969139;28;20097;-65
2023/05/06 05:02:54;;;;;;;18.52;16.73;;;;;;;9.58;100.00;101467.13;4968558;28;20446;-65
2023/05/06 05:05:20;;;;;;;17.75;15.98;;;;;;;9.64;100.00;101473.41;4980581;28;20419;-65
2023/05/06 05:07:45;;;;;;;18.08;16.27;;;;;;;9.69;100.00;101482.28;4987573;28;20112;-64
2023/05/06 05:10:10;;;;;;;15.38;13.80;;;;;;;9.73;100.00;101479.03;4973807;28;20053;-64
2023/05/06 05:12:36;;;;;;;17.40;15.05;;;;;;;9.77;100.00;101486.09;4963815;28;20014;-64
2023/05/06 05:15:02;;;;;;;15.65;14.02;;;;;;;9.81;100.00;101493.19;4978256;28;20121;-64
2023/05/06 05:17:27;;;;;;;15.48;13.85;;;;;;;9.83;100.00;101490.66;4975514;28;20022;-64
2023/05/06 05:19:52;;;;;;;15.25;13.65;;;;;;;9.87;100.00;101492.59;4986905;28;20038;-64
2023/05/06 05:22:18;;;;;;;15.13;13.63;;;;;;;9.90;100.00;101497.88;4987133;28;20026;-64
2023/05/06 05:24:43;;;;;;;13.63;12.27;;;;;;;9.94;100.00;101498.91;4986315;28;20022;-64
2023/05/06 05:27:09;;;;;;;16.60;13.70;;;;;;;9.97;100.00;101499.03;4985113;28;20029;-64
2023/05/06 05:29:35;;;;;;;14.75;13.25;;;;;;;10.01;100.00;101500.06;4985572;28;20035;-64
2023/05/06 05:32:00;;;;;;;16.63;12.15;;;;;;;10.01;100.00;101506.16;4988797;28;20026;-64
2023/05/06 05:34:25;;;;;;;14.35;12.48;;;;;;;10.02;100.00;101504.44;4989429;28;20026;-64
2023/05/06 05:36:51;;;;;;;14.77;12.48;;;;;;;10.03;100.00;101499.34;4984552;28;20596;-64
2023/05/06 05:39:17;;;;;;;15.77;12.68;;;;;;;10.08;100.00;101503.03;4989551;28;20026;-64
2023/05/06 05:41:42;;;;;;;13.65;12.05;;;;;;;10.10;100.00;101508.25;4986234;28;20027;-64
2023/05/06 05:44:07;;;;;;;14.68;12.80;;;;;;;10.13;100.00;101510.97;4959360;28;20026;-64
2023/05/06 05:46:33;;;;;;;14.45;12.60;;;;;;;10.14;100.00;101517.94;4976474;28;20364;-64
2023/05/06 05:48:58;;;;;;;17.77;13.15;;;;;;;10.18;100.00;101518.97;4980156;28;20049;-64
2023/05/06 05:51:23;;;;;;;18.50;13.40;;;;;;;10.25;100.00;101521.03;4985104;28;20018;-64
2023/05/06 05:53:50;;;;;;;19.25;17.33;;;;;;;10.37;100.00;101520.66;4985247;28;20072;-64
2023/05/06 05:56:16;;;;;;;21.77;19.77;;;;;;;10.53;100.00;101510.97;4985370;28;20101;-64
2023/05/06 05:58:41;;;;;;;23.23;20.95;;;;;;;10.67;100.00;101508.97;4981459;28;20471;-64
2023/05/06 06:01:06;;;;;;;19.98;17.95;;;;;;;10.81;100.00;101514.78;4990231;28;20065;-65
2023/05/06 06:03:31;;;;;;;16.17;14.48;;;;;;;10.87;100.00;101517.59;4978866;28;20030;-66
2023/05/06 06:05:57;;;;;;;17.13;15.50;;;;;;;11.02;100.00;101514.78;4977339;28;20391;-66
2023/05/06 06:08:22;;;;;;;17.15;15.52;;;;;;;11.18;100.00;101512.78;4974429;28;20026;-66
2023/05/06 06:10:48;;;;;;;15.10;13.02;;;;;;;11.34;100.00;101508.19;4976829;28;20030;-66
2023/05/06 06:13:13;;;;;;;12.27;11.02;;;;;;;11.40;100.00;101505.88;4985830;28;20026;-66
2023/05/06 06:15:39;;;;;;;11.88;10.60;;;;;;;11.49;100.00;101503.63;4984984;28;20100;-66
2023/05/06 06:18:07;;;;;;;11.10;9.57;;;;;;;11.57;100.00;101509.09;4985838;28;20045;-65
2023/05/06 06:20:33;;;;;;;12.40;10.55;;;;;;;11.72;100.00;101510.53;4980827;28;20023;-66
2023/05/06 06:22:58;;;;;;;10.23;8.95;;;;;;;11.78;100.00;101510.78;4985707;28;20030;-66
2023/05/06 06:25:23;;;;;;;10.77;8.32;;;;;;;11.95;100.00;101513.09;4981086;28;20471;-66
2023/05/06 06:27:48;;;;;;;8.93;7.28;;;;;;;12.15;100.00;101516.47;4985405;28;20045;-66
2023/05/06 06:30:14;;;;;;;11.05;8.45;;;;;;;12.38;100.00;101519.00;4985629;28;20506;-66
2023/05/06 06:32:50;;;;;;;9.32;8.32;;;;;;;12.60;100.00;101520.66;4984842;28;20050;-66
2023/05/06 06:35:16;;;;;;;10.23;8.20;;;;;;;12.79;100.00;101516.06;4973780;28;20471;-66
2023/05/06 06:37:41;;;;;;;9.95;7.75;;;;;;;12.89;100.00;101522.47;4983178;28;20026;-66
2023/05/06 06:40:09;;;;;;;8.80;7.25;;;;;;;13.01;100.00;101524.56;4978067;28;20026;-66
2023/05/06 06:42:34;;;;;;;9.60;7.25;;;;;;;13.16;100.00;101516.41;4974802;28;20058;-65
2023/05/06 06:45:00;;;;;;;12.52;7.53;;;;;;;13.35;100.00;101516.97;4983070;28;20442;-66
2023/05/06 06:47:26;;;;;;;8.38;6.13;;;;;;;13.51;100.00;101525.28;4970135;28;20469;-66
2023/05/06 06:49:51;;;;;;;9.48;7.32;;;;;;;13.52;100.00;101530.56;4936463;28;20271;-65
2023/05/06 06:52:16;;;;;;;7.55;6.80;;;;;;;13.55;100.00;101528.03;4953131;28;20095;-66
2023/05/06 06:54:41;;;;;;;10.88;6.30;;;;;;;13.71;100.00;101530.22;4975519;28;20025;-66
2023/05/06 06:57:07;;;;;;;10.32;6.95;;;;;;;13.84;100.00;101527.13;4989418;28;20026;-65
2023/05/06 06:59:32;;;;;;;7.45;6.47;;;;;;;13.99;100.00;101525.81;4970638;28;20380;-65
2023/05/06 07:01:57;;;;;;;9.55;6.32;;;;;;;14.19;100.00;101529.00;4981816;28;20033;-66
2023/05/06 07:04:24;;;;;;;7.85;6.32;;;;;;;14.16;100.00;101523.69;4989432;28;20543;-66
2023/05/06 07:06:50;;;;;;;8.00;5.82;;;;;;;14.37;100.00;101528.59;4989207;28;20022;-66
2023/05/06 07:09:15;;;;;;;8.27;6.25;;;;;;;14.60;100.00;101528.38;4988732;28;20370;-66
2023/05/06 07:11:40;;;;;;;11.35;7.00;;;;;;;14.60;100.00;101530.97;4977634;28;20488;-66
2023/05/06 07:14:06;;;;;;;7.97;6.25;;;;;;;14.58;100.00;101529.16;4988298;28;20029;-65
2023/05/06 07:16:31;;;;;;;7.72;5.63;;;;;;;14.79;100.00;101539.25;4989663;28;20101;-66
2023/05/06 07:18:57;;;;;;;6.55;5.93;;;;;;;15.04;100.00;101532.06;4988490;28;20034;-66
2023/05/06 07:21:22;;;;;;;8.30;6.00;;;;;;;15.33;100.00;101542.34;4989533;28;20483;-66
2023/05/06 07:23:47;;;;;;;9.43;7.07;;;;;;;15.58;100.00;101529.84;4987255;28;20018;-66
2023/05/06 07:26:13;;;;;;;11.65;7.43;;;;;;;15.60;100.00;101538.59;4987626;28;20423;-66
2023/05/06 07:28:38;;;;;;;8.32;5.47;;;;;;;15.80;100.00;101543.38;4986975;28;20073;-66
2023/05/06 07:31:03;;;;;;;6.75;6.05;;;;;;;16.00;100.00;101545.56;4976221;28;20015;-66
2023/05/06 07:33:29;;;;;;;8.98;6.90;;;;;;;16.12;100.00;101546.69;4970024;28;20476;-66
2023/05/06 07:35:54;;;;;;;7.78;6.65;;;;;;;16.15;100.00;101546.72;4977992;28;20566;-66
2023/05/06 07:38:21;;;;;;;8.95;7.65;;;;;;;16.18;100.00;101546.78;4986833;28;20064;-65
2023/05/06 07:40:47;;;;;;;12.00;8.15;;;;;;;16.12;100.00;101546.69;4979477;28;20462;-65
2023/05/06 07:43:12;;;;;;;10.80;8.52;;;;;;;16.25;100.00;101553.91;4986996;28;20018;-65
2023/05/06 07:45:38;;;;;;;13.82;10.18;;;;;;;16.35;100.00;101548.84;4982568;28;20057;-65
2023/05/06 07:48:04;;;;;;;12.90;9.52;;;;;;;16.52;100.00;101557.91;4982593;28;20050;-65
2023/05/06 07:50:30;;;;;;;12.23;9.55;;;;;;;16.68;100.00;101552.94;4981964;28;20057;-65
2023/05/06 07:52:56;;;;;;;13.98;10.15;;;;;;;16.87;100.00;101548.03;4980806;28;20058;-65
2023/05/06 07:55:21;;;;;;;13.63;9.57;;;;;;;17.05;100.00;101548.31;4982636;28;20022;-65
2023/05/06 07:57:46;;;;;;;13.65;9.50;;;;;;;17.38;100.00;101550.59;4979938;28;20726;-65
2023/05/06 08:00:12;;;;;;;12.88;10.10;;;;;;;17.62;100.00;101550.09;4982123;28;20561;-65
2023/05/06 08:02:42;;;;;;;12.27;8.32;;;;;;;17.95;100.00;101547.88;4982499;28;20037;-65
2023/05/06 08:05:08;;;;;;;10.75;7.97;;;;;;;18.22;100.00;101551.72;4983522;28;20580;-65
2023/05/06 08:07:33;;;;;;;11.50;8.48;;;;;;;18.39;100.00;101550.16;4950267;28;20049;-64
2023/05/06 08:09:58;;;;;;;8.48;7.60;;;;;;;18.43;98.94;101550.22;4983674;28;20026;-65
2023/05/06 08:12:24;;;;;;;12.95;8.13;;;;;;;18.70;100.00;101545.22;4983680;28;20026;-65
2023/05/06 08:14:49;;;;;;;11.32;8.30;;;;;;;18.92;100.00;101554.19;4982437;28;20371;-63
2023/05/06 08:17:14;;;;;;;11.40;8.82;;;;;;;18.97;100.00;101556.81;4983593;28;20256;-63
2023/05/06 08:19:40;;;;;;;8.70;7.63;;;;;;;19.08;94.39;101554.28;4980778;28;20022;-63
2023/05/06 08:22:05;;;;;;;9.90;7.50;;;;;;;19.22;96.16;101564.03;4982481;28;20084;-63
2023/05/06 08:24:30;;;;;;;9.88;7.55;;;;;;;19.31;100.00;101551.88;4983690;28;20085;-63
2023/05/06 08:26:55;;;;;;;8.18;6.97;;;;;;;19.22;95.51;101551.78;4983182;28;20040;-65
2023/05/06 08:29:21;;;;;;;7.53;5.88;;;;;;;19.23;94.62;101552.69;4983062;28;20361;-65
2023/05/06 08:31:46;;;;;;;8.00;5.68;;;;;;;19.44;93.13;101550.19;4982213;28;20065;-65
2023/05/06 08:34:11;;;;;;;6.75;5.68;;;;;;;19.60;92.59;101552.03;4983221;28;20030;-65
2023/05/06 08:36:37;;;;;;;5.60;5.10;;;;;;;19.56;86.06;101551.13;4981389;28;20034;-65
2023/05/06 08:39:02;;;;;;;8.63;5.55;;;;;;;19.35;91.01;101546.63;4982604;28;20646;-65
2023/05/06 08:41:30;;;;;;;6.45;5.10;;;;;;;19.37;87.39;101540.53;4982369;28;20023;-64
2023/05/06 08:43:57;;;;;;;7.50;5.30;;;;;;;19.47;86.31;101546.69;4983829;28;20034;-65
2023/05/06 08:46:22;;;;;;;5.85;4.60;;;;;;;19.40;82.04;101551.03;4982497;28;20038;-65
2023/05/06 08:48:47;;;;;;;8.55;4.70;;;;;;;19.30;86.81;101549.22;4983021;28;20198;-64
2023/05/06 08:51:14;;;;;;;5.78;4.85;;;;;;;19.12;90.33;101542.97;4963646;28;20104;-65
2023/05/06 08:53:45;;;;;;;6.25;4.85;;;;;;;19.34;88.60;101537.00;4981537;28;20038;-65
2023/05/06 08:56:12;;;;;;;5.85;4.47;;;;;;;19.60;88.82;101542.41;4981312;28;20053;-65
2023/05/06 08:58:40;;;;;;;6.35;4.10;;;;;;;19.48;83.54;101537.06;4982891;28;20415;-65
2023/05/06 09:01:05;;;;;;;5.90;4.80;;;;;;;19.76;89.79;101532.84;4982510;28;20034;-65
2023/05/06 09:03:31;;;;;;;6.43;5.55;;;;;;;19.68;86.16;101540.69;4965822;28;20096;-65
2023/05/06 09:05:56;;;;;;;5.15;4.13;;;;;;;19.84;89.36;101530.22;4983132;28;20718;-65
2023/05/06 09:08:22;;;;;;;4.85;3.47;;;;;;;19.70;81.12;101534.56;4982276;28;20564;-65
2023/05/06 09:10:47;;;;;;;4.85;3.80;;;;;;;19.86;81.79;101525.84;4982918;28;20055;-65
2023/05/06 09:13:15;;;;;;;5.93;3.95;;;;;;;20.07;84.24;101529.47;4985108;28;20030;-65
2023/05/06 09:15:46;;;;;;;4.38;3.78;;;;;;;20.10;79.78;101518.97;4984681;28;20141;-65
2023/05/06 09:18:12;;;;;;;3.90;3.60;;;;;;;20.24;84.89;101526.00;4985386;28;20338;-65
2023/05/06 09:20:45;;;;;;;4.90;2.50;;;;;;;20.44;81.28;101520.78;4985789;28;20030;-65
2023/05/06 09:23:14;;;;;;;5.45;2.65;;;;;;;20.54;81.85;101529.59;4984502;28;20682;-65
2023/05/06 09:25:41;;;;;;;3.78;3.40;;;;;;;20.06;76.77;101522.44;4982372;28;22086;-65
2023/05/06 09:28:09;;;;;;;5.32;3.78;;;;;;;20.07;79.23;101526.84;4986379;28;20122;-65
2023/05/06 09:30:40;;;;;;;4.93;3.13;;;;;;;20.36;80.98;101533.06;4985448;28;20056;-65
2023/05/06 09:33:06;;;;;;;4.07;2.85;;;;;;;20.35;79.76;101526.03;4985302;28;20030;-65
2023/05/06 09:35:39;;;;;;;4.32;3.03;;;;;;;20.42;79.85;101527.78;4984822;28;20310;-65
2023/05/06 09:38:06;;;;;;;5.88;3.50;;;;;;;20.27;77.23;101537.41;4984216;28;20471;-66
2023/05/06 09:40:31;;;;;;;4.55;3.03;;;;;;;20.36;78.64;101528.66;4985688;28;20074;-66
2023/05/06 09:42:57;;;;;;;4.88;2.53;;;;;;;20.31;78.95;101525.13;4985256;28;20101;-65
2023/05/06 09:45:23;;;;;;;3.53;2.20;;;;;;;20.50;78.53;101526.06;4985497;28;20034;-65
2023/05/06 09:47:49;;;;;;;3.65;2.05;;;;;;;20.66;77.30;101525.19;4984730;28;20114;-65
2023/05/06 09:50:15;;;;;;;4.03;2.42;;;;;;;20.71;78.72;101521.69;4986094;28;20529;-65
2023/05/06 09:52:43;;;;;;;6.07;3.00;;;;;;;20.72;74.62;101514.69;4984838;28;20026;-65
2023/05/06 09:55:10;;;;;;;3.35;2.30;;;;;;;20.55;74.13;101519.91;4984752;28;20038;-65
2023/05/06 09:57:36;;;;;;;4.72;2.25;;;;;;;20.64;78.38;101523.44;4979393;28;20041;-65
2023/05/06 10:00:02;;;;;;;6.28;2.05;;;;;;;20.73;74.88;101513.78;4986043;28;20042;-65
2023/05/06 10:02:29;;;;;;;2.35;1.48;;;;;;;20.90;74.02;101508.53;4982643;28;20117;-65
2023/05/06 10:04:56;;;;;;;3.47;1.75;;;;;;;20.54;69.54;101511.16;4985818;28;20030;-65
2023/05/06 10:07:22;;;;;;;4.28;1.30;;;;;;;20.71;70.54;101505.88;4982774;28;20026;-65
2023/05/06 10:09:48;;;;;;;2.15;1.20;;;;;;;20.69;70.58;101499.75;4984571;28;20501;-65
2023/05/06 10:12:15;;;;;;;2.05;1.20;;;;;;;20.84;76.05;101504.13;4983605;28;20439;-65
2023/05/06 10:14:40;;;;;;;3.03;1.55;;;;;;;20.93;71.20;101507.63;4985194;28;20050;-65
2023/05/06 10:17:08;;;;;;;1.92;1.20;;;;;;;21.11;69.66;101501.50;4983416;28;20475;-65
2023/05/06 10:19:34;;;;;;;3.72;1.25;;;;;;;21.21;74.18;101500.59;4983949;28;20148;-65
2023/05/06 10:22:15;;;;;;;2.58;1.20;;;;;;;21.05;68.57;101496.22;4983231;28;20031;-65
2023/05/06 10:24:50;;;;;;;2.90;1.23;;;;;;;20.90;65.20;101491.84;4979985;28;20036;-65
2023/05/06 10:27:19;;;;;;;2.95;1.23;;;;;;;20.78;66.87;101498.88;4983645;28;20412;-65
2023/05/06 10:29:47;;;;;;;2.35;1.20;;;;;;;20.80;71.48;101480.41;4983389;28;20069;-65
2023/05/06 10:32:12;;;;;;;3.38;0.98;;;;;;;20.85;73.73;101495.34;4983246;28;20521;-65
2023/05/06 10:34:50;;;;;;;2.65;1.08;;;;;;;20.79;72.99;101484.84;4981938;28;20034;-65
2023/05/06 10:37:16;;;;;;;2.90;1.02;;;;;;;20.72;70.09;101490.97;4984364;28;20034;-65
2023/05/06 10:39:42;;;;;;;2.78;1.40;;;;;;;20.61;72.85;101493.59;4980703;28;20931;-66
2023/05/06 10:42:09;;;;;;;7.00;1.50;;;;;;;20.58;74.58;101485.72;4985484;28;20026;-65
2023/05/06 10:44:56;;;;;;;4.07;1.15;;;;;;;20.55;73.42;101478.69;4983650;28;20030;-65
2023/05/06 10:47:22;;;;;;;2.03;1.20;;;;;;;20.45;72.23;101475.19;4983264;28;20106;-65
2023/05/06 10:50:20;;;;;;;2.50;0.98;;;;;;;20.42;71.23;101479.56;4984750;28;20027;-65
2023/05/06 10:52:46;;;;;;;3.33;1.20;;;;;;;20.30;70.63;101476.03;4975435;28;20022;-65
2023/05/06 10:55:26;;;;;;;3.60;1.20;;;;;;;20.31;71.22;101476.91;4981748;28;20053;-65
2023/05/06 10:58:17;;;;;;;3.28;1.42;;;;;;;20.29;75.45;101474.28;4975113;28;20221;-66
2023/05/06 11:00:53;;;;;;;2.42;1.35;;;;;;;20.36;74.25;101480.44;4967194;28;20042;-65
2023/05/06 11:03:22;;;;;;;2.78;1.13;;;;;;;20.47;77.31;101472.56;4977079;28;20388;-65
2023/05/06 11:05:50;;;;;;;4.50;1.25;;;;;;;20.54;74.29;101471.69;4983731;28;20045;-65
2023/05/06 11:08:24;;;;;;;2.97;1.20;;;;;;;20.26;66.91;101477.78;4970089;28;20026;-65
2023/05/06 11:10:50;;;;;;;3.25;1.02;;;;;;;19.96;69.00;101475.94;4980735;28;20084;-65